sensor_id;sensor_type;location;lat;lon;timestamp;P1;durP1;ratioP1;P2;durP2;ratioP2
3811;SDS011;1921;49.368;11.068;2023-03-14T00:01:08;47.30;;;43.10;;
3811;SDS011;1921;49.368;11.068;2023-03-14T00:03:40;47.40;;;43.10;;
3811;SDS011;1921;49.368;11.068;2023-03-14T00:06:06;47.80;;;43.50;;
3811;SDS011;1921;49.368;11.068;2023-03-14T00:08:33;47.50;;;43.20;;
3811;SDS011;1921;49.368;11.068;2023-03-14T00:11:11;47.70;;;43.40;;
3811;SDS011;1921;49.368;11.068;2023-03-14T00:13:43;47.60;;;43.30;;
3811;SDS011;1921;49.368;11.068;2023-03-14T00:16:12;47.33;;;43.03;;
3811;SDS011;1921;49.368;11.068;2023-03-14T00:18:38;47.17;;;42.97;;
3811;SDS011;1921;49.368;11.068;2023-03-14T00:21:05;47.53;;;43.23;;
3811;SDS011;1921;49.368;11.068;2023-03-14T00:23:32;47.73;;;43.23;;
3811;SDS011;1921;49.368;11.068;2023-03-14T00:26:02;47.17;;;42.97;;
3811;SDS011;1921;49.368;11.068;2023-03-14T00:28:40;47.37;;;43.03;;
3811;SDS011;1921;49.368;11.068;2023-03-14T00:31:07;47.57;;;43.30;;
3811;SDS011;1921;49.368;11.068;2023-03-14T00:33:35;47.13;;;42.93;;
3811;SDS011;1921;49.368;11.068;2023-03-14T00:36:03;47.33;;;43.13;;
3811;SDS011;1921;49.368;11.068;2023-03-14T00:38:34;47.77;;;43.27;;
3811;SDS011;1921;49.368;11.068;2023-03-14T00:41:04;47.00;;;42.80;;
3811;SDS011;1921;49.368;11.068;2023-03-14T00:43:32;47.23;;;43.03;;
3811;SDS011;1921;49.368;11.068;2023-03-14T00:45:58;47.00;;;42.80;;
3811;SDS011;1921;49.368;11.068;2023-03-14T00:48:24;47.00;;;42.80;;
3811;SDS011;1921;49.368;11.068;2023-03-14T00:50:50;46.93;;;42.73;;
3811;SDS011;1921;49.368;11.068;2023-03-14T00:53:16;47.27;;;43.07;;
3811;SDS011;1921;49.368;11.068;2023-03-14T00:55:42;47.40;;;43.20;;
3811;SDS011;1921;49.368;11.068;2023-03-14T00:58:09;47.33;;;43.03;;
3811;SDS011;1921;49.368;11.068;2023-03-14T01:00:37;46.77;;;42.57;;
3811;SDS011;1921;49.368;11.068;2023-03-14T01:03:03;47.00;;;42.77;;
3811;SDS011;1921;49.368;11.068;2023-03-14T01:05:30;47.30;;;43.10;;
3811;SDS011;1921;49.368;11.068;2023-03-14T01:07:56;47.00;;;42.80;;
3811;SDS011;1921;49.368;11.068;2023-03-14T01:10:22;46.90;;;42.70;;
3811;SDS011;1921;49.368;11.068;2023-03-14T01:12:48;47.07;;;42.87;;
3811;SDS011;1921;49.368;11.068;2023-03-14T01:15:14;47.07;;;42.87;;
3811;SDS011;1921;49.368;11.068;2023-03-14T01:17:40;47.67;;;43.13;;
3811;SDS011;1921;49.368;11.068;2023-03-14T01:20:07;47.23;;;42.93;;
3811;SDS011;1921;49.368;11.068;2023-03-14T01:22:36;47.17;;;42.93;;
3811;SDS011;1921;49.368;11.068;2023-03-14T01:25:04;46.80;;;42.60;;
3811;SDS011;1921;49.368;11.068;2023-03-14T01:27:32;47.30;;;43.07;;
3811;SDS011;1921;49.368;11.068;2023-03-14T01:29:58;47.17;;;42.97;;
3811;SDS011;1921;49.368;11.068;2023-03-14T01:32:24;47.37;;;43.17;;
3811;SDS011;1921;49.368;11.068;2023-03-14T01:34:50;47.10;;;42.90;;
3811;SDS011;1921;49.368;11.068;2023-03-14T01:37:17;47.10;;;42.87;;
3811;SDS011;1921;49.368;11.068;2023-03-14T01:39:42;47.13;;;42.93;;
3811;SDS011;1921;49.368;11.068;2023-03-14T01:42:08;47.13;;;42.93;;
3811;SDS011;1921;49.368;11.068;2023-03-14T01:44:48;47.23;;;43.03;;
3811;SDS011;1921;49.368;11.068;2023-03-14T01:47:21;47.10;;;42.90;;
3811;SDS011;1921;49.368;11.068;2023-03-14T01:50:06;47.17;;;42.87;;
3811;SDS011;1921;49.368;11.068;2023-03-14T01:52:39;47.20;;;42.90;;
3811;SDS011;1921;49.368;11.068;2023-03-14T01:55:19;47.07;;;42.80;;
3811;SDS011;1921;49.368;11.068;2023-03-14T01:57:51;47.13;;;42.80;;
3811;SDS011;1921;49.368;11.068;2023-03-14T02:00:23;47.17;;;42.87;;
3811;SDS011;1921;49.368;11.068;2023-03-14T02:02:57;47.50;;;43.00;;
3811;SDS011;1921;49.368;11.068;2023-03-14T02:05:37;46.90;;;42.70;;
3811;SDS011;1921;49.368;11.068;2023-03-14T02:08:07;47.20;;;42.90;;
3811;SDS011;1921;49.368;11.068;2023-03-14T02:10:39;47.23;;;42.93;;
3811;SDS011;1921;49.368;11.068;2023-03-14T02:13:10;47.37;;;43.10;;
3811;SDS011;1921;49.368;11.068;2023-03-14T02:15:37;47.20;;;42.97;;
3811;SDS011;1921;49.368;11.068;2023-03-14T02:18:03;47.33;;;43.07;;
3811;SDS011;1921;49.368;11.068;2023-03-14T02:20:38;47.57;;;43.17;;
3811;SDS011;1921;49.368;11.068;2023-03-14T02:29:41;47.23;;;42.93;;
3811;SDS011;1921;49.368;11.068;2023-03-14T02:32:26;47.10;;;42.90;;
3811;SDS011;1921;49.368;11.068;2023-03-14T02:34:59;47.50;;;43.20;;
3811;SDS011;1921;49.368;11.068;2023-03-14T02:37:33;47.37;;;43.07;;
3811;SDS011;1921;49.368;11.068;2023-03-14T02:40:13;47.10;;;42.83;;
3811;SDS011;1921;49.368;11.068;2023-03-14T02:42:39;47.33;;;43.03;;
3811;SDS011;1921;49.368;11.068;2023-03-14T02:47:34;47.40;;;43.10;;
3811;SDS011;1921;49.368;11.068;2023-03-14T02:50:08;47.60;;;43.10;;
3811;SDS011;1921;49.368;11.068;2023-03-14T02:52:40;47.33;;;43.03;;
3811;SDS011;1921;49.368;11.068;2023-03-14T02:55:06;47.17;;;42.97;;
3811;SDS011;1921;49.368;11.068;2023-03-14T02:57:32;47.30;;;43.00;;
3811;SDS011;1921;49.368;11.068;2023-03-14T02:59:59;47.57;;;43.27;;
3811;SDS011;1921;49.368;11.068;2023-03-14T03:02:29;47.13;;;42.90;;
3811;SDS011;1921;49.368;11.068;2023-03-14T03:04:55;47.10;;;42.83;;
3811;SDS011;1921;49.368;11.068;2023-03-14T03:07:20;47.30;;;43.10;;
3811;SDS011;1921;49.368;11.068;2023-03-14T03:09:46;47.23;;;43.03;;
3811;SDS011;1921;49.368;11.068;2023-03-14T03:12:12;47.50;;;43.20;;
3811;SDS011;1921;49.368;11.068;2023-03-14T03:14:38;47.10;;;42.90;;
3811;SDS011;1921;49.368;11.068;2023-03-14T03:17:04;47.10;;;42.90;;
3811;SDS011;1921;49.368;11.068;2023-03-14T03:19:33;47.00;;;42.80;;
3811;SDS011;1921;49.368;11.068;2023-03-14T03:21:59;47.20;;;43.00;;
3811;SDS011;1921;49.368;11.068;2023-03-14T03:24:26;47.20;;;43.00;;
3811;SDS011;1921;49.368;11.068;2023-03-14T03:26:52;46.93;;;42.73;;
3811;SDS011;1921;49.368;11.068;2023-03-14T03:29:18;47.20;;;43.00;;
3811;SDS011;1921;49.368;11.068;2023-03-14T03:31:44;47.20;;;43.00;;
3811;SDS011;1921;49.368;11.068;2023-03-14T03:34:10;47.40;;;43.20;;
3811;SDS011;1921;49.368;11.068;2023-03-14T03:36:38;47.23;;;43.03;;
3811;SDS011;1921;49.368;11.068;2023-03-14T03:39:04;47.07;;;42.87;;
3811;SDS011;1921;49.368;11.068;2023-03-14T03:41:30;47.00;;;42.80;;
3811;SDS011;1921;49.368;11.068;2023-03-14T03:43:56;47.00;;;42.80;;
3811;SDS011;1921;49.368;11.068;2023-03-14T03:46:22;47.10;;;42.90;;
3811;SDS011;1921;49.368;11.068;2023-03-14T03:48:53;47.30;;;43.10;;
3811;SDS011;1921;49.368;11.068;2023-03-14T03:51:25;46.90;;;42.70;;
3811;SDS011;1921;49.368;11.068;2023-03-14T03:53:51;47.03;;;42.83;;
3811;SDS011;1921;49.368;11.068;2023-03-14T03:56:17;47.30;;;42.80;;
3811;SDS011;1921;49.368;11.068;2023-03-14T03:58:43;47.10;;;42.90;;
3811;SDS011;1921;49.368;11.068;2023-03-14T04:01:09;47.00;;;42.80;;
3811;SDS011;1921;49.368;11.068;2023-03-14T04:03:35;46.87;;;42.77;;
3811;SDS011;1921;49.368;11.068;2023-03-14T04:06:06;47.60;;;43.30;;
3811;SDS011;1921;49.368;11.068;2023-03-14T04:08:35;46.77;;;42.67;;
3811;SDS011;1921;49.368;11.068;2023-03-14T04:11:02;47.10;;;42.90;;
3811;SDS011;1921;49.368;11.068;2023-03-14T04:13:28;46.87;;;42.77;;
3811;SDS011;1921;49.368;11.068;2023-03-14T04:15:55;47.07;;;42.87;;
3811;SDS011;1921;49.368;11.068;2023-03-14T04:18:21;47.50;;;43.30;;
3811;SDS011;1921;49.368;11.068;2023-03-14T04:20:51;47.00;;;42.80;;
3811;SDS011;1921;49.368;11.068;2023-03-14T04:23:22;46.80;;;42.63;;
3811;SDS011;1921;49.368;11.068;2023-03-14T04:25:49;46.47;;;42.37;;
3811;SDS011;1921;49.368;11.068;2023-03-14T04:28:18;46.93;;;42.83;;
3811;SDS011;1921;49.368;11.068;2023-03-14T04:30:44;46.77;;;42.67;;
3811;SDS011;1921;49.368;11.068;2023-03-14T04:33:09;46.67;;;42.47;;
3811;SDS011;1921;49.368;11.068;2023-03-14T04:35:37;47.10;;;42.90;;
3811;SDS011;1921;49.368;11.068;2023-03-14T04:38:03;46.67;;;42.57;;
3811;SDS011;1921;49.368;11.068;2023-03-14T04:40:29;46.90;;;42.80;;
3811;SDS011;1921;49.368;11.068;2023-03-14T04:42:54;46.97;;;42.77;;
3811;SDS011;1921;49.368;11.068;2023-03-14T04:45:20;46.80;;;42.70;;
3811;SDS011;1921;49.368;11.068;2023-03-14T04:47:46;46.80;;;42.70;;
3811;SDS011;1921;49.368;11.068;2023-03-14T04:50:12;46.60;;;42.50;;
3811;SDS011;1921;49.368;11.068;2023-03-14T04:52:38;46.60;;;42.50;;
3811;SDS011;1921;49.368;11.068;2023-03-14T04:55:04;46.80;;;42.70;;
3811;SDS011;1921;49.368;11.068;2023-03-14T04:57:30;46.60;;;42.50;;
3811;SDS011;1921;49.368;11.068;2023-03-14T04:59:55;46.57;;;42.47;;
3811;SDS011;1921;49.368;11.068;2023-03-14T05:02:21;46.60;;;42.50;;
3811;SDS011;1921;49.368;11.068;2023-03-14T05:04:47;46.80;;;42.70;;
3811;SDS011;1921;49.368;11.068;2023-03-14T05:07:13;46.57;;;42.53;;
3811;SDS011;1921;49.368;11.068;2023-03-14T05:09:38;46.47;;;42.43;;
3811;SDS011;1921;49.368;11.068;2023-03-14T05:12:04;46.40;;;42.40;;
3811;SDS011;1921;49.368;11.068;2023-03-14T05:14:30;46.67;;;42.60;;
3811;SDS011;1921;49.368;11.068;2023-03-14T05:16:56;46.50;;;42.40;;
3811;SDS011;1921;49.368;11.068;2023-03-14T05:19:22;46.53;;;42.47;;
3811;SDS011;1921;49.368;11.068;2023-03-14T05:21:48;46.87;;;42.77;;
3811;SDS011;1921;49.368;11.068;2023-03-14T05:24:13;46.60;;;42.50;;
3811;SDS011;1921;49.368;11.068;2023-03-14T05:26:39;46.70;;;42.60;;
3811;SDS011;1921;49.368;11.068;2023-03-14T05:29:05;46.90;;;42.80;;
3811;SDS011;1921;49.368;11.068;2023-03-14T05:31:30;46.50;;;42.40;;
3811;SDS011;1921;49.368;11.068;2023-03-14T05:33:56;46.77;;;42.57;;
3811;SDS011;1921;49.368;11.068;2023-03-14T05:36:22;46.50;;;42.50;;
3811;SDS011;1921;49.368;11.068;2023-03-14T05:38:48;46.67;;;42.60;;
3811;SDS011;1921;49.368;11.068;2023-03-14T05:41:14;46.70;;;42.60;;
3811;SDS011;1921;49.368;11.068;2023-03-14T05:43:40;46.80;;;42.70;;
3811;SDS011;1921;49.368;11.068;2023-03-14T05:46:06;46.73;;;42.67;;
3811;SDS011;1921;49.368;11.068;2023-03-14T05:48:31;46.87;;;42.67;;
3811;SDS011;1921;49.368;11.068;2023-03-14T05:50:57;47.27;;;43.10;;
3811;SDS011;1921;49.368;11.068;2023-03-14T05:53:24;46.80;;;42.70;;
3811;SDS011;1921;49.368;11.068;2023-03-14T05:55:51;46.90;;;42.70;;
3811;SDS011;1921;49.368;11.068;2023-03-14T05:58:18;46.70;;;42.60;;
3811;SDS011;1921;49.368;11.068;2023-03-14T06:00:44;46.70;;;42.60;;
3811;SDS011;1921;49.368;11.068;2023-03-14T06:03:09;46.60;;;42.60;;
3811;SDS011;1921;49.368;11.068;2023-03-14T06:05:35;46.57;;;42.37;;
3811;SDS011;1921;49.368;11.068;2023-03-14T06:08:01;46.47;;;42.47;;
3811;SDS011;1921;49.368;11.068;2023-03-14T06:10:27;46.77;;;42.67;;
3811;SDS011;1921;49.368;11.068;2023-03-14T06:12:52;47.10;;;42.87;;
3811;SDS011;1921;49.368;11.068;2023-03-14T06:15:18;46.90;;;42.80;;
3811;SDS011;1921;49.368;11.068;2023-03-14T06:17:44;47.87;;;43.13;;
3811;SDS011;1921;49.368;11.068;2023-03-14T06:20:10;47.30;;;43.10;;
3811;SDS011;1921;49.368;11.068;2023-03-14T06:22:37;46.80;;;42.70;;
3811;SDS011;1921;49.368;11.068;2023-03-14T06:25:04;47.07;;;42.87;;
3811;SDS011;1921;49.368;11.068;2023-03-14T06:27:31;47.20;;;43.00;;
3811;SDS011;1921;49.368;11.068;2023-03-14T06:29:57;47.20;;;43.00;;
3811;SDS011;1921;49.368;11.068;2023-03-14T06:32:23;47.37;;;43.07;;
3811;SDS011;1921;49.368;11.068;2023-03-14T06:34:50;46.80;;;42.60;;
3811;SDS011;1921;49.368;11.068;2023-03-14T06:37:22;47.70;;;43.40;;
3811;SDS011;1921;49.368;11.068;2023-03-14T06:39:48;47.80;;;43.50;;
3811;SDS011;1921;49.368;11.068;2023-03-14T06:42:14;47.20;;;43.00;;
3811;SDS011;1921;49.368;11.068;2023-03-14T06:44:39;47.50;;;43.23;;
3811;SDS011;1921;49.368;11.068;2023-03-14T06:47:05;47.50;;;43.20;;
3811;SDS011;1921;49.368;11.068;2023-03-14T06:49:31;47.73;;;43.43;;
3811;SDS011;1921;49.368;11.068;2023-03-14T06:51:57;47.70;;;43.40;;
3811;SDS011;1921;49.368;11.068;2023-03-14T06:54:22;54.07;;;48.93;;
3811;SDS011;1921;49.368;11.068;2023-03-14T06:56:48;47.67;;;43.37;;
3811;SDS011;1921;49.368;11.068;2023-03-14T06:59:14;48.37;;;43.70;;
3811;SDS011;1921;49.368;11.068;2023-03-14T07:01:40;47.70;;;43.30;;
3811;SDS011;1921;49.368;11.068;2023-03-14T07:04:05;48.10;;;43.60;;
3811;SDS011;1921;49.368;11.068;2023-03-14T07:06:32;48.07;;;43.67;;
3811;SDS011;1921;49.368;11.068;2023-03-14T07:08:58;48.50;;;43.70;;
3811;SDS011;1921;49.368;11.068;2023-03-14T07:11:25;48.50;;;43.70;;
3811;SDS011;1921;49.368;11.068;2023-03-14T07:13:51;48.90;;;44.30;;
3811;SDS011;1921;49.368;11.068;2023-03-14T07:16:17;48.60;;;43.90;;
3811;SDS011;1921;49.368;11.068;2023-03-14T07:18:43;48.90;;;44.00;;
3811;SDS011;1921;49.368;11.068;2023-03-14T07:21:08;48.40;;;43.90;;
3811;SDS011;1921;49.368;11.068;2023-03-14T07:23:35;48.87;;;44.27;;
3811;SDS011;1921;49.368;11.068;2023-03-14T07:26:01;48.50;;;43.90;;
3811;SDS011;1921;49.368;11.068;2023-03-14T07:28:27;48.70;;;44.10;;
3811;SDS011;1921;49.368;11.068;2023-03-14T07:30:53;49.00;;;44.40;;
3811;SDS011;1921;49.368;11.068;2023-03-14T07:33:19;49.03;;;44.33;;
3811;SDS011;1921;49.368;11.068;2023-03-14T07:35:49;49.03;;;44.43;;
3811;SDS011;1921;49.368;11.068;2023-03-14T07:38:15;48.77;;;43.97;;
3811;SDS011;1921;49.368;11.068;2023-03-14T07:40:41;48.83;;;44.23;;
3811;SDS011;1921;49.368;11.068;2023-03-14T07:43:07;49.20;;;44.40;;
3811;SDS011;1921;49.368;11.068;2023-03-14T07:45:33;48.63;;;44.07;;
3811;SDS011;1921;49.368;11.068;2023-03-14T07:47:59;48.83;;;44.23;;
3811;SDS011;1921;49.368;11.068;2023-03-14T07:50:25;48.43;;;43.83;;
3811;SDS011;1921;49.368;11.068;2023-03-14T07:52:51;48.70;;;44.10;;
3811;SDS011;1921;49.368;11.068;2023-03-14T07:55:17;48.50;;;44.00;;
3811;SDS011;1921;49.368;11.068;2023-03-14T07:57:43;48.77;;;44.17;;
3811;SDS011;1921;49.368;11.068;2023-03-14T08:00:08;48.73;;;44.03;;
3811;SDS011;1921;49.368;11.068;2023-03-14T08:02:36;48.60;;;44.00;;
3811;SDS011;1921;49.368;11.068;2023-03-14T08:05:02;49.10;;;44.40;;
3811;SDS011;1921;49.368;11.068;2023-03-14T08:07:28;49.23;;;44.53;;
3811;SDS011;1921;49.368;11.068;2023-03-14T08:09:54;49.07;;;44.37;;
3811;SDS011;1921;49.368;11.068;2023-03-14T08:12:20;48.83;;;44.13;;
3811;SDS011;1921;49.368;11.068;2023-03-14T08:14:46;49.27;;;44.47;;
3811;SDS011;1921;49.368;11.068;2023-03-14T08:17:12;49.03;;;44.33;;
3811;SDS011;1921;49.368;11.068;2023-03-14T08:19:37;49.43;;;44.53;;
3811;SDS011;1921;49.368;11.068;2023-03-14T08:22:04;49.67;;;44.60;;
3811;SDS011;1921;49.368;11.068;2023-03-14T08:24:29;49.03;;;44.23;;
3811;SDS011;1921;49.368;11.068;2023-03-14T08:26:56;49.70;;;44.80;;
3811;SDS011;1921;49.368;11.068;2023-03-14T08:29:21;50.03;;;45.00;;
3811;SDS011;1921;49.368;11.068;2023-03-14T08:31:47;50.30;;;45.20;;
3811;SDS011;1921;49.368;11.068;2023-03-14T08:34:14;51.00;;;45.60;;
3811;SDS011;1921;49.368;11.068;2023-03-14T08:36:40;50.83;;;45.63;;
3811;SDS011;1921;49.368;11.068;2023-03-14T08:39:06;50.70;;;45.53;;
3811;SDS011;1921;49.368;11.068;2023-03-14T08:41:32;51.03;;;45.83;;
3811;SDS011;1921;49.368;11.068;2023-03-14T08:43:59;50.83;;;45.63;;
3811;SDS011;1921;49.368;11.068;2023-03-14T08:46:25;50.00;;;44.90;;
3811;SDS011;1921;49.368;11.068;2023-03-14T08:48:51;50.50;;;45.30;;
3811;SDS011;1921;49.368;11.068;2023-03-14T08:51:17;50.93;;;45.63;;
3811;SDS011;1921;49.368;11.068;2023-03-14T08:53:42;50.90;;;45.70;;
3811;SDS011;1921;49.368;11.068;2023-03-14T08:56:08;51.43;;;46.03;;
3811;SDS011;1921;49.368;11.068;2023-03-14T08:58:37;51.50;;;46.10;;
3811;SDS011;1921;49.368;11.068;2023-03-14T09:01:04;51.23;;;45.93;;
3811;SDS011;1921;49.368;11.068;2023-03-14T09:03:31;53.23;;;45.73;;
3811;SDS011;1921;49.368;11.068;2023-03-14T09:06:00;51.00;;;45.70;;
3811;SDS011;1921;49.368;11.068;2023-03-14T09:08:29;51.00;;;45.80;;
3811;SDS011;1921;49.368;11.068;2023-03-14T09:10:55;51.20;;;45.90;;
3811;SDS011;1921;49.368;11.068;2023-03-14T09:13:20;52.13;;;46.00;;
3811;SDS011;1921;49.368;11.068;2023-03-14T09:15:50;50.93;;;45.53;;
3811;SDS011;1921;49.368;11.068;2023-03-14T09:18:21;50.70;;;45.50;;
3811;SDS011;1921;49.368;11.068;2023-03-14T09:20:47;50.97;;;45.77;;
3811;SDS011;1921;49.368;11.068;2023-03-14T09:23:15;54.03;;;46.00;;
3811;SDS011;1921;49.368;11.068;2023-03-14T09:25:40;50.90;;;45.60;;
3811;SDS011;1921;49.368;11.068;2023-03-14T09:28:06;51.50;;;46.10;;
3811;SDS011;1921;49.368;11.068;2023-03-14T09:30:32;51.40;;;46.03;;
3811;SDS011;1921;49.368;11.068;2023-03-14T09:32:58;51.07;;;45.77;;
3811;SDS011;1921;49.368;11.068;2023-03-14T09:35:35;50.93;;;45.73;;
3811;SDS011;1921;49.368;11.068;2023-03-14T09:38:00;51.13;;;45.83;;
3811;SDS011;1921;49.368;11.068;2023-03-14T09:40:27;51.53;;;46.03;;
3811;SDS011;1921;49.368;11.068;2023-03-14T09:42:59;51.23;;;45.83;;
3811;SDS011;1921;49.368;11.068;2023-03-14T09:45:26;51.23;;;45.83;;
3811;SDS011;1921;49.368;11.068;2023-03-14T09:47:59;51.63;;;46.13;;
3811;SDS011;1921;49.368;11.068;2023-03-14T09:50:30;51.43;;;46.07;;
3811;SDS011;1921;49.368;11.068;2023-03-14T09:53:09;51.47;;;46.10;;
3811;SDS011;1921;49.368;11.068;2023-03-14T09:55:42;51.90;;;46.40;;
3811;SDS011;1921;49.368;11.068;2023-03-14T09:58:11;51.90;;;46.40;;
3811;SDS011;1921;49.368;11.068;2023-03-14T10:00:39;51.90;;;46.50;;
3811;SDS011;1921;49.368;11.068;2023-03-14T10:05:36;52.00;;;46.50;;
3811;SDS011;1921;49.368;11.068;2023-03-14T10:08:02;51.37;;;46.07;;
3811;SDS011;1921;49.368;11.068;2023-03-14T10:10:29;51.27;;;45.93;;
3811;SDS011;1921;49.368;11.068;2023-03-14T10:12:57;51.00;;;45.80;;
3811;SDS011;1921;49.368;11.068;2023-03-14T10:15:48;50.80;;;45.60;;
3811;SDS011;1921;49.368;11.068;2023-03-14T10:18:18;50.43;;;45.33;;
3811;SDS011;1921;49.368;11.068;2023-03-14T10:20:48;51.00;;;45.70;;
3811;SDS011;1921;49.368;11.068;2023-03-14T10:23:27;50.87;;;45.47;;
3811;SDS011;1921;49.368;11.068;2023-03-14T10:28:46;51.67;;;46.17;;
3811;SDS011;1921;49.368;11.068;2023-03-14T10:31:26;50.83;;;45.63;;
3811;SDS011;1921;49.368;11.068;2023-03-14T10:34:03;50.77;;;45.57;;
3811;SDS011;1921;49.368;11.068;2023-03-14T10:36:30;50.70;;;45.50;;
3811;SDS011;1921;49.368;11.068;2023-03-14T10:42:05;50.97;;;45.77;;
3811;SDS011;1921;49.368;11.068;2023-03-14T10:45:10;51.00;;;45.80;;
3811;SDS011;1921;49.368;11.068;2023-03-14T10:48:06;50.90;;;45.70;;
3811;SDS011;1921;49.368;11.068;2023-03-14T10:51:07;50.87;;;45.67;;
3811;SDS011;1921;49.368;11.068;2023-03-14T10:54:13;51.13;;;45.73;;
3811;SDS011;1921;49.368;11.068;2023-03-14T10:56:47;51.23;;;45.93;;
3811;SDS011;1921;49.368;11.068;2023-03-14T10:59:27;51.23;;;45.83;;
3811;SDS011;1921;49.368;11.068;2023-03-14T11:04:55;50.87;;;45.57;;
3811;SDS011;1921;49.368;11.068;2023-03-14T11:07:40;50.83;;;45.63;;
3811;SDS011;1921;49.368;11.068;2023-03-14T11:10:14;51.17;;;45.87;;
3811;SDS011;1921;49.368;11.068;2023-03-14T11:13:05;50.80;;;45.60;;
3811;SDS011;1921;49.368;11.068;2023-03-14T11:21:33;51.20;;;45.57;;
3811;SDS011;1921;49.368;11.068;2023-03-14T11:27:22;50.60;;;45.50;;
3811;SDS011;1921;49.368;11.068;2023-03-14T11:33:14;50.23;;;45.07;;
3811;SDS011;1921;49.368;11.068;2023-03-14T11:36:11;50.07;;;45.07;;
3811;SDS011;1921;49.368;11.068;2023-03-14T11:38:52;50.50;;;45.50;;
3811;SDS011;1921;49.368;11.068;2023-03-14T11:41:25;50.07;;;45.07;;
3811;SDS011;1921;49.368;11.068;2023-03-14T11:44:18;50.40;;;45.30;;
3811;SDS011;1921;49.368;11.068;2023-03-14T11:47:02;50.80;;;45.60;;
3811;SDS011;1921;49.368;11.068;2023-03-14T11:49:40;56.33;;;45.90;;
3811;SDS011;1921;49.368;11.068;2023-03-14T11:52:39;51.93;;;46.23;;
3811;SDS011;1921;49.368;11.068;2023-03-14T11:58:01;51.53;;;46.13;;
3811;SDS011;1921;49.368;11.068;2023-03-14T12:01:12;51.67;;;46.17;;
3811;SDS011;1921;49.368;11.068;2023-03-14T12:06:54;52.23;;;46.70;;
3811;SDS011;1921;49.368;11.068;2023-03-14T12:09:26;52.50;;;46.90;;
3811;SDS011;1921;49.368;11.068;2023-03-14T12:11:53;52.27;;;46.70;;
3811;SDS011;1921;49.368;11.068;2023-03-14T12:14:27;52.43;;;46.83;;
3811;SDS011;1921;49.368;11.068;2023-03-14T12:25:28;51.90;;;46.50;;
3811;SDS011;1921;49.368;11.068;2023-03-14T12:30:55;51.70;;;46.30;;
3811;SDS011;1921;49.368;11.068;2023-03-14T12:33:39;51.77;;;46.37;;
3811;SDS011;1921;49.368;11.068;2023-03-14T12:36:11;51.57;;;46.17;;
3811;SDS011;1921;49.368;11.068;2023-03-14T12:39:07;52.30;;;46.70;;
3811;SDS011;1921;49.368;11.068;2023-03-14T12:42:03;51.57;;;46.17;;
3811;SDS011;1921;49.368;11.068;2023-03-14T12:49:43;51.37;;;46.07;;
3811;SDS011;1921;49.368;11.068;2023-03-14T12:52:21;51.83;;;46.43;;
3811;SDS011;1921;49.368;11.068;2023-03-14T12:55:41;51.13;;;45.83;;
3811;SDS011;1921;49.368;11.068;2023-03-14T13:01:36;51.50;;;46.20;;
3811;SDS011;1921;49.368;11.068;2023-03-14T13:04:10;51.20;;;45.90;;
3811;SDS011;1921;49.368;11.068;2023-03-14T13:06:54;51.00;;;45.70;;
3811;SDS011;1921;49.368;11.068;2023-03-14T13:11:54;50.37;;;45.37;;
3811;SDS011;1921;49.368;11.068;2023-03-14T13:14:27;49.93;;;44.93;;
3811;SDS011;1921;49.368;11.068;2023-03-14T13:16:59;48.87;;;44.17;;
3811;SDS011;1921;49.368;11.068;2023-03-14T13:19:26;49.07;;;44.37;;
3811;SDS011;1921;49.368;11.068;2023-03-14T13:22:02;49.07;;;44.30;;
3811;SDS011;1921;49.368;11.068;2023-03-14T13:24:39;48.83;;;44.13;;
3811;SDS011;1921;49.368;11.068;2023-03-14T13:27:05;48.70;;;44.10;;
3811;SDS011;1921;49.368;11.068;2023-03-14T13:29:45;48.87;;;44.17;;
3811;SDS011;1921;49.368;11.068;2023-03-14T13:32:26;48.60;;;44.00;;
3811;SDS011;1921;49.368;11.068;2023-03-14T13:34:57;48.90;;;44.10;;
3811;SDS011;1921;49.368;11.068;2023-03-14T13:37:24;48.57;;;44.00;;
3811;SDS011;1921;49.368;11.068;2023-03-14T13:39:52;48.50;;;43.70;;
3811;SDS011;1921;49.368;11.068;2023-03-14T13:42:20;48.47;;;43.90;;
3811;SDS011;1921;49.368;11.068;2023-03-14T13:44:51;48.13;;;43.53;;
3811;SDS011;1921;49.368;11.068;2023-03-14T13:47:20;48.37;;;43.80;;
3811;SDS011;1921;49.368;11.068;2023-03-14T13:49:48;48.13;;;43.63;;
3811;SDS011;1921;49.368;11.068;2023-03-14T13:52:37;47.93;;;43.53;;
3811;SDS011;1921;49.368;11.068;2023-03-14T13:55:03;47.90;;;43.50;;
3811;SDS011;1921;49.368;11.068;2023-03-14T13:57:48;48.30;;;43.60;;
3811;SDS011;1921;49.368;11.068;2023-03-14T14:00:26;48.20;;;43.60;;
3811;SDS011;1921;49.368;11.068;2023-03-14T14:02:56;47.53;;;43.13;;
3811;SDS011;1921;49.368;11.068;2023-03-14T14:05:28;47.60;;;43.20;;
3811;SDS011;1921;49.368;11.068;2023-03-14T14:07:54;48.17;;;43.77;;
3811;SDS011;1921;49.368;11.068;2023-03-14T14:10:21;47.47;;;43.07;;
3811;SDS011;1921;49.368;11.068;2023-03-14T14:12:55;48.63;;;44.23;;
3811;SDS011;1921;49.368;11.068;2023-03-14T14:15:28;47.80;;;43.43;;
3811;SDS011;1921;49.368;11.068;2023-03-14T14:20:38;47.73;;;43.40;;
3811;SDS011;1921;49.368;11.068;2023-03-14T14:23:12;47.50;;;43.13;;
3811;SDS011;1921;49.368;11.068;2023-03-14T14:25:50;48.10;;;43.70;;
3811;SDS011;1921;49.368;11.068;2023-03-14T14:33:43;47.63;;;43.33;;
3811;SDS011;1921;49.368;11.068;2023-03-14T14:36:15;47.70;;;43.30;;
3811;SDS011;1921;49.368;11.068;2023-03-14T14:38:49;47.53;;;43.23;;
3811;SDS011;1921;49.368;11.068;2023-03-14T14:41:51;47.47;;;43.20;;
3811;SDS011;1921;49.368;11.068;2023-03-14T14:44:25;47.50;;;43.20;;
3811;SDS011;1921;49.368;11.068;2023-03-14T14:47:02;47.13;;;42.93;;
3811;SDS011;1921;49.368;11.068;2023-03-14T14:49:29;47.37;;;43.13;;
3811;SDS011;1921;49.368;11.068;2023-03-14T14:52:04;47.63;;;43.37;;
3811;SDS011;1921;49.368;11.068;2023-03-14T14:57:20;47.57;;;43.30;;
3811;SDS011;1921;49.368;11.068;2023-03-14T14:59:50;47.03;;;42.87;;
3811;SDS011;1921;49.368;11.068;2023-03-14T15:02:27;47.23;;;43.03;;
3811;SDS011;1921;49.368;11.068;2023-03-14T15:05:12;47.30;;;43.10;;
3811;SDS011;1921;49.368;11.068;2023-03-14T15:07:49;47.07;;;42.97;;
3811;SDS011;1921;49.368;11.068;2023-03-14T15:10:17;47.67;;;43.57;;
3811;SDS011;1921;49.368;11.068;2023-03-14T15:12:45;47.90;;;43.50;;
3811;SDS011;1921;49.368;11.068;2023-03-14T15:15:12;47.43;;;43.03;;
3811;SDS011;1921;49.368;11.068;2023-03-14T15:17:39;46.83;;;42.73;;
3811;SDS011;1921;49.368;11.068;2023-03-14T15:20:05;46.97;;;42.90;;
3811;SDS011;1921;49.368;11.068;2023-03-14T15:22:40;47.47;;;43.27;;
3811;SDS011;1921;49.368;11.068;2023-03-14T15:25:06;46.97;;;42.90;;
3811;SDS011;1921;49.368;11.068;2023-03-14T15:27:33;47.03;;;42.93;;
3811;SDS011;1921;49.368;11.068;2023-03-14T15:29:59;46.97;;;42.93;;
3811;SDS011;1921;49.368;11.068;2023-03-14T15:32:25;47.10;;;43.03;;
3811;SDS011;1921;49.368;11.068;2023-03-14T15:34:55;46.87;;;42.87;;
3811;SDS011;1921;49.368;11.068;2023-03-14T15:37:21;48.00;;;43.43;;
3811;SDS011;1921;49.368;11.068;2023-03-14T15:39:50;47.03;;;42.93;;
3811;SDS011;1921;49.368;11.068;2023-03-14T15:42:16;46.47;;;42.47;;
3811;SDS011;1921;49.368;11.068;2023-03-14T15:44:42;47.37;;;43.07;;
3811;SDS011;1921;49.368;11.068;2023-03-14T15:47:08;46.80;;;42.80;;
3811;SDS011;1921;49.368;11.068;2023-03-14T15:49:35;52.17;;;43.20;;
3811;SDS011;1921;49.368;11.068;2023-03-14T15:52:01;47.20;;;43.03;;
3811;SDS011;1921;49.368;11.068;2023-03-14T15:54:27;47.03;;;42.93;;
3811;SDS011;1921;49.368;11.068;2023-03-14T15:56:53;46.90;;;42.80;;
3811;SDS011;1921;49.368;11.068;2023-03-14T15:59:23;47.40;;;43.10;;
3811;SDS011;1921;49.368;11.068;2023-03-14T16:01:49;47.03;;;42.90;;